|
Latest SYNOP SHIP Observations
JKFA7QZ DBLK R/V Polarstern | |
| Day | DTG UTC | La.mm | Lon.mm | TRK/SPD | Wind | kt | N | Vis | wwMETAR | Tl | Td | Tw | Sea | Swl | ~Dir | MSLP | ICE | Bi |
|---|---|---|---|---|---|---|---|---|---|---|---|---|---|---|---|---|---|---|
| DIE | 01.09.26 00:00 | N88.24 | E122.30 | E 3kt | 60 | 19 | 8 | 20 | OVC | -2.6 | -2.9 | -1.6 | - | - | 0 | 1007.8 | / | / |
| MON | 31.08.26 00:00 | N88.00 | E133.36 | E 3kt | 290 | 10 | / | - | 10BR | -2.7 | -2.9 | -1.6 | - | - | - | 1004.6 | / | / |
| SON | 30.08.26 18:00 | N87.54 | E132.48 | W 3kt | 280 | 19 | / | - | 10BR | -2.4 | -2.6 | -1.5 | - | - | - | 1003.6 | / | / |
| SON | 30.08.26 12:00 | N87.30 | E137.00 | NW 3kt | 290 | 21 | 8 | 4.0 | 85-SHSN | -2.5 | -2.7 | -1.5 | - | - | 0 | 1002.9 | / | / |
| SON | 30.08.26 06:00 | N87.24 | E145.36 | NW 3kt | 310 | 18 | / | - | 10BR | -2.0 | -2.9 | -1.6 | - | - | - | 1001.8 | / | / |
| SON | 30.08.26 00:00 | N87.30 | E154.18 | SW 3kt | 330 | 14 | 6 | 20 | BKN | -2.3 | -3.4 | -1.5 | - | - | 0 | 1000.6 | / | / |
| SAM | 29.08.26 18:00 | N87.42 | E147.30 | E 3kt | 320 | 16 | / | - | 10BR | -2.0 | -2.0 | -1.5 | - | - | - | 1000.8 | / | / |
| SAM | 29.08.26 12:00 | N87.42 | E139.48 | S 3kt | 10 | 14 | 4 | 20 | SCT | -2.9 | -3.2 | -1.5 | - | - | 0 | 1001.1 | / | / |
| SAM | 29.08.26 00:00 | N88.30 | E133.30 | S 3kt | 310 | 10 | 8 | 20 | OVC | -4.1 | -4.4 | -1.5 | 0.0 | - | 0 | 1001.6 | / | / |
| FRE | 28.08.26 12:00 | N88.42 | E089.30 | NE 8kt | 40 | 23 | 8 | 10 | 70-SN | -3.1 | -4.6 | -1.5 | 0.5 | - | 0 | 1002.7 | / | / |
| DON | 27.08.26 18:00 | N87.30 | E041.42 | NE 8kt | 290 | 19 | / | - | 10BR | -0.4 | - | -1.6 | - | - | - | 1000.8 | / | / |
| DON | 27.08.26 00:00 | N86.12 | E024.06 | NW 8kt | 260 | 18 | 8 | 20 | OVC | -0.8 | - | -1.6 | - | - | 0 | 1008.3 | / | / |
| DIE | 25.08.26 18:00 | N83.12 | E012.06 | N 8kt | 350 | 16 | / | - | 10BR | -2.6 | -4.0 | -1.6 | - | - | - | 1015.8 | / | / |
| DIE | 25.08.26 12:00 | N82.42 | E010.30 | NE 8kt | 330 | 19 | 8 | 2.0 | OVC | -0.7 | - | -1.4 | - | - | 0 | 1011.9 | / | / |
| DIE | 25.08.26 00:00 | N82.24 | E010.30 | SW 3kt | 10 | 10 | / | - | 10BR | -1.5 | -1.5 | -1.7 | - | - | - | 1013.5 | / | / |
| MON | 24.08.26 12:00 | N81.42 | E009.30 | NE 3kt | 30 | 08 | / | - | 10BR | -1.3 | - | -1.7 | - | - | - | 1012.1 | / | / |
| MON | 24.08.26 06:00 | N81.30 | E008.54 | Station | 360 | 08 | / | - | 10BR | -1.5 | -1.5 | -1.6 | - | - | - | 1013.2 | / | / |
| MON | 24.08.26 00:00 | N81.42 | E005.30 | E 8kt | 340 | 10 | 8 | 20 | OVC | -2.6 | -2.6 | -1.7 | - | - | 0 | 1014.1 | / | / |
| SAM | 22.08.26 18:00 | N81.30 | W007.30 | E 3kt | 270 | 10 | / | - | 10BR | -2.2 | -2.4 | -1.0 | - | - | - | 1011.4 | / | / |
| SAM | 22.08.26 06:00 | N81.42 | W009.36 | / 3kt | 320 | 16 | / | - | 10BR | -0.5 | -2.2 | -1.1 | - | - | - | 1010.3 | / | / |
| Day | DTG UTC | La.mm | Lon.mm | TRK/SPD | Wind | kt | N | Vis | wwMETAR | Tl | Td | Tw | Sea | Swl | ~Dir | MSLP | ICE | Bi |
|---|---|---|---|---|---|---|---|---|---|---|---|---|---|---|---|---|---|---|
| SAM | 22.08.26 00:00 | N81.42 | W010.00 | / 3kt | 330 | 21 | / | - | 10BR | -0.3 | -0.9 | -1.1 | - | - | - | 1009.1 | / | / |
| FRE | 21.08.26 18:00 | N81.42 | W009.30 | S 3kt | 350 | 21 | / | - | 10BR | 0.5 | 0.1 | -1.2 | - | - | - | 1005.9 | / | / |
| FRE | 21.08.26 12:00 | N81.42 | W009.36 | Station | 210 | 16 | / | - | 10BR | 1.9 | -0.5 | -1.2 | - | - | - | 1004.1 | / | / |
| FRE | 21.08.26 06:00 | N81.42 | W009.36 | Station | 170 | 14 | / | - | 10BR | -3.2 | -3.2 | -1.2 | - | - | - | 1006.9 | / | / |
| FRE | 21.08.26 00:00 | N81.42 | W009.30 | Station | 220 | 06 | / | - | 10BR | -1.4 | - | -1.2 | - | - | - | 1010.6 | / | / |
| DON | 20.08.26 18:00 | N81.42 | W009.36 | Station | 330 | 06 | / | - | 10BR | -2.5 | -2.5 | -1.3 | - | - | - | 1011.4 | / | / |
| DON | 20.08.26 00:00 | N81.54 | W009.06 | Station | 360 | 08 | 8 | 10 | OVC | -2.1 | - | -1.3 | - | - | 0 | 1011.8 | / | / |
| MIT | 19.08.26 12:00 | N81.54 | W008.00 | / 3kt | 170 | 12 | / | - | 10BR | -2.0 | - | -1.3 | - | - | - | 1009.2 | / | / |
| MIT | 19.08.26 06:00 | N82.00 | W006.00 | NW 8kt | 180 | 19 | / | - | 10BR | -1.6 | - | -1.3 | - | - | - | 1008.7 | / | / |
| DIE | 18.08.26 18:00 | N81.30 | W004.30 | N 3kt | 180 | 18 | / | - | 10BR | -1.4 | -1.4 | -1.5 | - | - | - | 1010.5 | / | / |
| DIE | 18.08.26 00:00 | N81.30 | W005.12 | Station | 200 | 14 | 2 | 2.0 | 10BR | -2.3 | - | -1.4 | - | - | 0 | 1009.9 | / | / |
| MON | 17.08.26 18:00 | N81.24 | W004.42 | / 3kt | 230 | 10 | / | - | 10BR | -0.5 | - | -1.6 | - | - | - | 1009.2 | / | / |
| MON | 17.08.26 06:00 | N81.12 | W001.48 | / 3kt | 260 | 06 | / | - | 10BR | -1.4 | -1.4 | -1.5 | - | - | - | 1010.5 | / | / |
| MON | 17.08.26 00:00 | N81.00 | W003.06 | / 3kt | 290 | 10 | 8 | 20 | OVC | -0.9 | -1.3 | -1.5 | - | - | 0 | 1010.4 | / | / |
| SON | 16.08.26 18:00 | N81.00 | W003.42 | / 3kt | 300 | 12 | / | - | 10BR | -1.1 | -1.6 | -1.5 | - | - | - | 1009.8 | / | / |
| SON | 16.08.26 12:00 | N80.54 | W001.48 | NW 8kt | 300 | 10 | / | - | 10BR | -0.8 | -1.0 | -1.6 | - | - | - | 1008.2 | / | / |
| SON | 16.08.26 06:00 | N81.00 | W001.06 | SE 3kt | 280 | 14 | / | - | 10BR | -0.6 | -0.6 | -1.6 | - | - | - | 1006.7 | / | / |
| SAM | 15.08.26 18:00 | N80.30 | E002.06 | NE 8kt | 290 | 12 | / | - | 10BR | -1.2 | -1.2 | -0.7 | - | - | - | 1006.8 | / | / |
| SAM | 15.08.26 06:00 | N79.12 | E000.48 | NE 8kt | 300 | 10 | / | - | 10BR | -1.2 | - | -0.5 | - | - | - | 1007.3 | / | / |
| SAM | 15.08.26 00:00 | N78.42 | W001.18 | N 8kt | 340 | 12 | 8 | 20 | OVC | -0.1 | -0.3 | 2.3 | 0.5 | 1.0 | 140 | 1007.2 | / | / |
| Day | DTG UTC | La.mm | Lon.mm | TRK/SPD | Wind | kt | N | Vis | wwMETAR | Tl | Td | Tw | Sea | Swl | ~Dir | MSLP | ICE | Bi |
|---|---|---|---|---|---|---|---|---|---|---|---|---|---|---|---|---|---|---|
| FRE | 14.08.26 18:00 | N78.42 | W004.00 | E 8kt | 340 | 06 | / | - | 10BR | 0.2 | - | -0.9 | - | - | - | 1007.1 | / | / |
| FRE | 14.08.26 12:00 | N78.30 | W006.42 | E 8kt | 220 | 04 | / | - | 10BR | 0.9 | 0.5 | -0.7 | - | - | - | 1007.3 | / | / |
| FRE | 14.08.26 06:00 | N78.30 | W010.54 | E 13kt | 290 | 02 | / | - | 10BR | 2.4 | -1.3 | 1.3 | - | - | - | 1007.9 | / | / |
| FRE | 14.08.26 00:00 | N78.30 | W014.48 | NE 8kt | 220 | 12 | 3 | 20 | SCT | 0.6 | -1.7 | -0.2 | - | - | 0 | 1009.9 | / | / |
| DON | 13.08.26 18:00 | N78.42 | W015.36 | S 3kt | 230 | 10 | / | - | 10BR | 1.0 | -0.2 | -1.0 | - | - | - | 1012.8 | / | / |
| DON | 13.08.26 06:00 | N79.00 | W016.48 | Station | 210 | 16 | / | - | 10BR | 0.9 | -1.8 | -0.7 | - | - | - | 1017.6 | / | / |
| MIT | 12.08.26 12:00 | N79.00 | W017.00 | / 3kt | 290 | 14 | / | - | 10BR | 2.9 | -2.6 | -1.3 | - | - | - | 1015.4 | / | / |
| DIE | 11.08.26 18:00 | N79.00 | W017.00 | Station | 20 | 10 | / | - | 10BR | 0.4 | -2.6 | -0.9 | - | - | - | 1013.4 | / | / |
| DIE | 11.08.26 12:00 | N78.42 | W017.30 | N 3kt | 120 | 06 | / | - | 10BR | 0.8 | -1.5 | 0.7 | - | - | - | 1010.6 | / | / |
| DIE | 11.08.26 06:00 | N78.12 | W017.06 | W 3kt | 240 | 10 | / | - | 10BR | 1.1 | -2.8 | 0.0 | - | - | - | 1009.6 | / | / |
| MON | 10.08.26 18:00 | N78.12 | W009.30 | W 13kt | 350 | 35 | / | - | 10BR | 0.6 | -2.4 | 2.6 | - | - | - | 1002.9 | / | / |
| MON | 10.08.26 12:00 | N78.00 | W005.12 | / 3kt | 320 | 35 | / | - | 10BR | -0.3 | -0.8 | 1.3 | - | - | - | 1001.2 | / | / |
| MON | 10.08.26 06:00 | N78.12 | W002.06 | W 13kt | 340 | 29 | / | - | 10BR | -0.3 | -3.3 | 4.5 | - | - | - | 1000.6 | / | / |
| MON | 10.08.26 00:00 | N78.00 | E002.48 | W 8kt | 340 | 25 | 6 | 20 | BKN | 2.1 | -2.9 | 7.2 | 0.5 | 2.0 | 330 | 998.0 | / | / |
| SON | 09.08.26 18:00 | N78.00 | E008.00 | W 8kt | 270 | 25 | / | - | 10BR | 6.0 | 5.3 | 8.1 | - | - | - | 995.4 | / | / |
| SON | 09.08.26 12:00 | N78.00 | E013.00 | W 8kt | 310 | 12 | 8 | 20 | OVC | 4.6 | 1.5 | 7.2 | 0.5 | 1.0 | 300 | 997.8 | / | / |
| SAM | 08.08.26 12:00 | N76.30 | E012.48 | N 13kt | 160 | 06 | / | - | 10BR | 3.8 | 0.7 | 8.5 | - | - | - | 1006.4 | / | / |
| FRE | 07.08.26 18:00 | N74.00 | E016.06 | N 13kt | 300 | 16 | / | - | 10BR | 7.0 | 3.3 | 9.8 | - | - | - | 1003.0 | / | / |
| FRE | 07.08.26 12:00 | N73.00 | E017.18 | N 13kt | 290 | 14 | / | - | 10BR | 8.8 | 6.8 | 10.7 | - | - | - | 1004.6 | / | / |
| FRE | 07.08.26 06:00 | N72.00 | E018.30 | N 8kt | 290 | 14 | 7 | 10 | 10BR | 8.0 | 6.5 | 10.9 | 0.5 | 1.0 | 360 | 1005.0 | / | / |
| Day | DTG UTC | La.mm | Lon.mm | TRK/SPD | Wind | kt | N | Vis | wwMETAR | Tl | Td | Tw | Sea | Swl | ~Dir | MSLP | ICE | Bi |
|---|---|---|---|---|---|---|---|---|---|---|---|---|---|---|---|---|---|---|
| DON | 06.08.26 18:00 | N70.00 | E020.06 | NE 8kt | 10 | 19 | / | - | 10BR | 11.0 | 7.9 | 11.3 | - | - | - | 1005.3 | / | / |
| DON | 06.08.26 12:00 | N69.42 | E019.06 | Station | 50 | 12 | / | - | 10BR | 13.6 | 5.6 | 10.5 | - | - | - | 1007.4 | / | / |
| MIT | 05.08.26 12:00 | N69.42 | E019.06 | Station | 220 | 12 | / | - | 10BR | 11.0 | 7.6 | 10.6 | - | - | - | 1012.6 | / | / |
| MIT | 05.08.26 00:00 | N69.42 | E019.06 | Station | 230 | 10 | / | - | 10BR | 9.0 | 7.5 | 10.5 | - | - | - | 1012.2 | / | / |
| DIE | 04.08.26 12:00 | N69.42 | E019.06 | Station | 290 | 12 | / | - | 10BR | 10.6 | 7.4 | 10.4 | - | - | - | 1011.4 | / | / |
| DIE | 04.08.26 06:00 | N69.42 | E019.06 | Station | 270 | 10 | / | - | 10BR | 9.1 | 8.1 | 10.5 | - | - | - | 1010.5 | / | / |
| DIE | 04.08.26 00:00 | N69.42 | E019.06 | Station | 320 | 10 | / | - | 10BR | 10.2 | 8.0 | 10.6 | - | - | - | 1009.9 | / | / |
| MON | 03.08.26 00:00 | N70.30 | E020.06 | SE 8kt | 80 | 12 | 6 | 20 | BKN | 11.3 | 10.4 | 11.7 | 1.0 | 1.5 | 50 | 1008.3 | / | / |
| SON | 02.08.26 12:00 | N72.00 | E017.18 | SE 8kt | 170 | 04 | 4 | 20 | SCT | 11.7 | 10.0 | 12.6 | 0.5 | 2.0 | 50 | 1010.6 | / | / |
| SON | 02.08.26 06:00 | N72.42 | E015.48 | SE 8kt | 10 | 02 | / | - | 10BR | 10.4 | 10.2 | 10.9 | - | - | - | 1008.8 | / | / |
| SAM | 01.08.26 18:00 | N74.30 | E011.48 | SE 8kt | 50 | 29 | / | - | 10BR | 6.7 | 5.6 | 8.9 | - | - | - | 1007.9 | / | / |
| SAM | 01.08.26 06:00 | N76.12 | E007.12 | SE 8kt | 50 | 16 | / | - | 10BR | 8.0 | 6.8 | 8.3 | - | - | - | 1014.0 | / | / |
| FRE | 31.07.26 12:00 | N78.30 | E005.00 | Station | 10 | 19 | 4 | 50 | SCT | 5.3 | 3.5 | 8.4 | 1.0 | 1.5 | 10 | 1017.6 | / | / |
| FRE | 31.07.26 06:00 | N78.30 | E005.00 | Station | 20 | 12 | / | - | 10BR | 5.3 | 5.1 | 8.3 | - | - | - | 1017.2 | / | / |
| DON | 30.07.26 00:00 | N79.00 | E004.54 | SW 8kt | 10 | 12 | 2 | 50 | FEW | 3.6 | 1.9 | 5.4 | 0.5 | - | - | 1016.0 | 0 | 4 |
| MIT | 29.07.26 12:00 | N79.00 | E006.54 | S 8kt | 330 | 04 | 2 | 50 | 11MIFG | 4.4 | 3.4 | 5.4 | 0.5 | - | - | 1015.9 | / | / |
| MIT | 29.07.26 06:00 | N79.00 | E006.42 | Station | 360 | 06 | / | - | 10BR | 1.6 | - | 5.8 | - | - | - | 1015.2 | / | / |
| DIE | 28.07.26 18:00 | N79.30 | E005.00 | Station | 340 | 06 | / | - | 10BR | 0.0 | - | 5.1 | - | - | - | 1014.6 | / | / |
| DIE | 28.07.26 12:00 | N79.30 | E005.00 | E 3kt | 290 | 14 | 5 | 50 | BKN | 1.5 | 0.3 | 4.8 | 0.5 | 1.0 | 80 | 1013.0 | / | / |
| DIE | 28.07.26 00:00 | N79.42 | E004.24 | Station | 360 | 10 | 2 | 50 | FEW | -0.2 | -3.3 | 0.4 | 1.0 | 1.0 | 80 | 1010.4 | 1 | 4 |
| Day | DTG UTC | La.mm | Lon.mm | TRK/SPD | Wind | kt | N | Vis | wwMETAR | Tl | Td | Tw | Sea | Swl | ~Dir | MSLP | ICE | Bi |
|---|---|---|---|---|---|---|---|---|---|---|---|---|---|---|---|---|---|---|
| MON | 27.07.26 18:00 | N79.42 | E004.00 | SE 8kt | 40 | 12 | / | - | 10BR | -0.4 | -3.7 | 1.3 | - | - | - | 1010.0 | / | / |
| MON | 27.07.26 06:00 | N79.54 | E003.06 | Station | 30 | 19 | / | - | 10BR | -0.6 | -2.9 | 0.2 | - | - | - | 1010.9 | / | / |
| MON | 27.07.26 00:00 | N79.54 | E003.00 | SW 3kt | 30 | 19 | 7 | 4.0 | 58DZRA | -0.6 | -1.4 | -0.2 | 0.5 | - | - | 1010.3 | 2 | 4 |
| SON | 26.07.26 12:00 | N79.42 | E004.24 | Station | 10 | 08 | 5 | 20 | 11MIFG | 0.9 | 0.0 | 1.1 | 0.5 | 1.0 | 90 | 1005.4 | 1 | 4 |
| SAM | 25.07.26 12:00 | N79.00 | E004.24 | Station | 350 | 18 | 8 | 50 | OVC | 1.8 | 0.9 | 3.6 | 1.0 | 1.0 | 170 | 1001.1 | 1 | 4 |
| FRE | 24.07.26 18:00 | N79.00 | E003.30 | Station | 70 | 10 | / | - | 10BR | 6.2 | 2.5 | 3.0 | - | - | - | 1007.2 | / | / |
| FRE | 24.07.26 06:00 | N79.00 | E003.36 | Station | 110 | 16 | / | - | 10BR | 4.5 | - | 1.7 | - | - | - | 1005.8 | / | / |
| DON | 23.07.26 00:00 | N79.00 | E004.12 | NE 3kt | 200 | 14 | 8 | - | OVC | 2.7 | 1.6 | 4.6 | 0.5 | - | - | 1007.7 | 1 | 4 |
| MIT | 22.07.26 18:00 | N79.00 | E004.00 | Station | 190 | 18 | / | - | 10BR | 2.5 | 1.1 | 4.5 | - | - | - | 1007.4 | / | / |
| MIT | 22.07.26 12:00 | N79.00 | E004.00 | Station | 180 | 12 | / | 20 | 10BR | 1.3 | 0.5 | 3.9 | - | - | - | 1008.7 | / | / |
| MIT | 22.07.26 00:00 | N79.00 | E004.00 | E 3kt | 250 | 04 | 4 | 50 | SCT | 1.3 | -0.4 | 4.1 | 0.0 | - | - | 1010.6 | 2 | 4 |
| DIE | 21.07.26 18:00 | N79.00 | E004.12 | W 8kt | 320 | 10 | / | - | 10BR | -1.1 | -1.1 | -0.2 | - | - | - | 1011.8 | / | / |
| DIE | 21.07.26 12:00 | N79.00 | E005.30 | Station | 310 | 10 | 7 | 20 | BKN | 1.0 | 0.2 | 6.2 | 0.5 | 1.0 | 10 | 1012.4 | 1 | 4 |
| MON | 20.07.26 18:00 | N79.00 | E006.30 | W 8kt | 320 | 10 | / | - | 10BR | 0.6 | -1.1 | 3.7 | - | - | - | 1010.1 | / | / |
| MON | 20.07.26 12:00 | N79.00 | E008.18 | / 3kt | 280 | 06 | 7 | 50 | BKN | 1.7 | 0.0 | 5.0 | 0.5 | 1.0 | 360 | 1010.5 | / | / |
| MON | 20.07.26 06:00 | N78.54 | E009.30 | Station | 300 | 12 | / | - | 10BR | 2.8 | -1.5 | 7.5 | - | - | - | 1009.7 | / | / |
| MON | 20.07.26 00:00 | N79.00 | E010.06 | W 8kt | 290 | 16 | 6 | 50 | BKN | 3.2 | - | 7.0 | 1.0 | 1.5 | 10 | 1009.0 | / | / |
| SON | 19.07.26 18:00 | N79.00 | E009.30 | E 8kt | 320 | 16 | / | - | 10BR | 3.1 | - | 7.5 | - | - | - | 1009.4 | / | / |
| SON | 19.07.26 12:00 | N79.00 | E008.00 | E 8kt | 320 | 23 | 8 | 20 | OVC | 2.4 | - | 8.3 | 1.0 | 1.5 | 10 | 1009.7 | / | / |
| SON | 19.07.26 06:00 | N79.00 | E007.00 | Station | 330 | 23 | / | - | 10BR | 0.9 | - | 7.3 | - | - | - | 1009.0 | / | / |
| Day | DTG UTC | La.mm | Lon.mm | TRK/SPD | Wind | kt | N | Vis | wwMETAR | Tl | Td | Tw | Sea | Swl | ~Dir | MSLP | ICE | Bi |
|---|---|---|---|---|---|---|---|---|---|---|---|---|---|---|---|---|---|---|
| SON | 19.07.26 00:00 | N79.00 | E006.00 | Station | 340 | 19 | 8 | 20 | OVC | -0.6 | - | 7.1 | 1.0 | 2.0 | 10 | 1010.0 | / | / |
| SAM | 18.07.26 18:00 | N79.00 | E007.00 | Station | 350 | 23 | / | - | 10BR | 2.1 | - | 7.2 | - | - | - | 1008.7 | / | / |
| SAM | 18.07.26 00:00 | N79.00 | E007.00 | S 3kt | 360 | 25 | 8 | 4.0 | OVC | 3.8 | - | 7.1 | 1.0 | - | 0 | 1003.4 | / | / |
| FRE | 17.07.26 12:00 | N79.00 | E002.42 | Station | 330 | 19 | 7 | 20 | BKN | -0.7 | - | -0.4 | 0.0 | - | - | 1003.4 | 2 | 4 |
| FRE | 17.07.26 00:00 | N79.00 | E002.42 | Station | 270 | 12 | 8 | 4.0 | OVC | -0.2 | - | -0.3 | 0.0 | - | - | 1003.5 | 2 | 4 |
| DON | 16.07.26 00:00 | N79.00 | E002.42 | NW 3kt | 10 | 06 | 4 | 4.0 | 40VCFG | 0.9 | - | -0.5 | 0.0 | 1.0 | 180 | 1004.6 | 2 | 4 |
| MIT | 15.07.26 18:00 | N79.00 | E002.42 | Station | 30 | 12 | / | - | 10BR | -0.1 | - | -0.6 | - | - | - | 1004.7 | / | / |
| MIT | 15.07.26 12:00 | N78.54 | E000.30 | NE 8kt | 30 | 08 | 8 | 0.2 | 47+FG | -2.0 | - | -0.4 | 0.0 | - | - | 1004.2 | 2 | 4 |
| DIE | 14.07.26 12:00 | N78.42 | W002.42 | NW 3kt | 200 | 16 | 3 | 50 | FEW | 0.8 | - | -0.7 | 0.0 | - | - | 1004.8 | 2 | 4 |
| DIE | 14.07.26 06:00 | N78.42 | W002.42 | Station | 240 | 14 | / | - | 10BR | 0.6 | - | -0.8 | - | - | - | 1005.9 | / | / |
| DIE | 14.07.26 00:00 | N78.42 | W003.42 | S 3kt | 270 | 18 | 5 | 20 | SCT | 1.5 | - | -1.0 | 0.5 | - | - | 1005.2 | 2 | 4 |